sensor_id;sensor_type;location;lat;lon;timestamp;P1;durP1;ratioP1;P2;durP2;ratioP2
8046;SDS011;67150;42.516;23.358;2023-02-11T00:01:15;6.27;;;5.10;;
8046;SDS011;67150;42.516;23.358;2023-02-11T00:04:04;5.97;;;4.87;;
8046;SDS011;67150;42.516;23.358;2023-02-11T00:06:50;6.17;;;5.10;;
8046;SDS011;67150;42.516;23.358;2023-02-11T00:09:36;5.93;;;5.07;;
8046;SDS011;67150;42.516;23.358;2023-02-11T00:12:23;6.00;;;5.30;;
8046;SDS011;67150;42.516;23.358;2023-02-11T00:15:09;6.50;;;5.23;;
8046;SDS011;67150;42.516;23.358;2023-02-11T00:17:55;6.03;;;5.20;;
8046;SDS011;67150;42.516;23.358;2023-02-11T00:20:41;6.50;;;5.30;;
8046;SDS011;67150;42.516;23.358;2023-02-11T00:23:27;6.60;;;5.13;;
8046;SDS011;67150;42.516;23.358;2023-02-11T00:26:14;5.80;;;5.20;;
8046;SDS011;67150;42.516;23.358;2023-02-11T00:29:03;5.77;;;5.17;;
8046;SDS011;67150;42.516;23.358;2023-02-11T00:31:49;6.67;;;5.60;;
8046;SDS011;67150;42.516;23.358;2023-02-11T00:34:35;6.27;;;5.60;;
8046;SDS011;67150;42.516;23.358;2023-02-11T00:37:21;7.40;;;5.40;;
8046;SDS011;67150;42.516;23.358;2023-02-11T00:40:07;6.10;;;5.50;;
8046;SDS011;67150;42.516;23.358;2023-02-11T00:42:53;7.03;;;5.50;;
8046;SDS011;67150;42.516;23.358;2023-02-11T00:45:40;6.30;;;5.63;;
8046;SDS011;67150;42.516;23.358;2023-02-11T00:48:26;8.00;;;4.93;;
8046;SDS011;67150;42.516;23.358;2023-02-11T00:51:11;6.50;;;5.80;;
8046;SDS011;67150;42.516;23.358;2023-02-11T00:53:58;6.67;;;5.40;;
8046;SDS011;67150;42.516;23.358;2023-02-11T00:56:43;6.57;;;5.50;;
8046;SDS011;67150;42.516;23.358;2023-02-11T00:59:29;8.57;;;5.60;;
8046;SDS011;67150;42.516;23.358;2023-02-11T01:02:16;7.73;;;6.30;;
8046;SDS011;67150;42.516;23.358;2023-02-11T01:05:02;6.50;;;5.60;;
8046;SDS011;67150;42.516;23.358;2023-02-11T01:07:48;5.70;;;5.17;;
8046;SDS011;67150;42.516;23.358;2023-02-11T01:10:34;6.10;;;5.17;;
8046;SDS011;67150;42.516;23.358;2023-02-11T01:13:20;5.67;;;5.10;;
8046;SDS011;67150;42.516;23.358;2023-02-11T01:16:07;6.23;;;5.00;;
8046;SDS011;67150;42.516;23.358;2023-02-11T01:18:55;5.73;;;4.97;;
8046;SDS011;67150;42.516;23.358;2023-02-11T01:21:41;5.63;;;4.97;;
8046;SDS011;67150;42.516;23.358;2023-02-11T01:24:27;7.53;;;4.93;;
8046;SDS011;67150;42.516;23.358;2023-02-11T01:27:13;6.33;;;5.20;;
8046;SDS011;67150;42.516;23.358;2023-02-11T01:29:58;5.33;;;4.30;;
8046;SDS011;67150;42.516;23.358;2023-02-11T01:32:44;6.33;;;5.03;;
8046;SDS011;67150;42.516;23.358;2023-02-11T01:35:31;5.60;;;5.00;;
8046;SDS011;67150;42.516;23.358;2023-02-11T01:38:17;4.93;;;4.43;;
8046;SDS011;67150;42.516;23.358;2023-02-11T01:41:05;5.37;;;4.87;;
8046;SDS011;67150;42.516;23.358;2023-02-11T01:43:52;5.50;;;4.90;;
8046;SDS011;67150;42.516;23.358;2023-02-11T01:46:38;5.53;;;4.87;;
8046;SDS011;67150;42.516;23.358;2023-02-11T01:49:25;5.83;;;5.07;;
8046;SDS011;67150;42.516;23.358;2023-02-11T01:52:16;5.00;;;4.50;;
8046;SDS011;67150;42.516;23.358;2023-02-11T01:55:07;5.33;;;4.83;;
8046;SDS011;67150;42.516;23.358;2023-02-11T01:58:12;5.47;;;4.93;;
8046;SDS011;67150;42.516;23.358;2023-02-11T02:00:58;5.60;;;4.97;;
8046;SDS011;67150;42.516;23.358;2023-02-11T02:03:47;5.93;;;4.93;;
8046;SDS011;67150;42.516;23.358;2023-02-11T02:06:37;5.30;;;4.80;;
8046;SDS011;67150;42.516;23.358;2023-02-11T02:09:30;5.27;;;4.63;;
8046;SDS011;67150;42.516;23.358;2023-02-11T02:12:21;5.93;;;5.33;;
8046;SDS011;67150;42.516;23.358;2023-02-11T02:15:17;5.37;;;4.63;;
8046;SDS011;67150;42.516;23.358;2023-02-11T02:18:08;9.83;;;4.90;;
8046;SDS011;67150;42.516;23.358;2023-02-11T02:24:47;6.57;;;5.00;;
8046;SDS011;67150;42.516;23.358;2023-02-11T02:27:46;7.17;;;5.20;;
8046;SDS011;67150;42.516;23.358;2023-02-11T02:34:00;7.17;;;5.20;;
8046;SDS011;67150;42.516;23.358;2023-02-11T02:36:52;5.87;;;4.87;;
8046;SDS011;67150;42.516;23.358;2023-02-11T02:39:44;5.30;;;4.73;;
8046;SDS011;67150;42.516;23.358;2023-02-11T02:42:33;6.20;;;4.90;;
8046;SDS011;67150;42.516;23.358;2023-02-11T02:45:19;6.77;;;5.43;;
8046;SDS011;67150;42.516;23.358;2023-02-11T02:48:05;5.30;;;4.40;;
8046;SDS011;67150;42.516;23.358;2023-02-11T02:50:53;6.23;;;4.73;;
8046;SDS011;67150;42.516;23.358;2023-02-11T02:53:50;6.63;;;5.00;;
8046;SDS011;67150;42.516;23.358;2023-02-11T02:56:47;5.17;;;4.53;;
8046;SDS011;67150;42.516;23.358;2023-02-11T02:59:41;5.37;;;4.87;;
8046;SDS011;67150;42.516;23.358;2023-02-11T03:02:38;5.10;;;4.60;;
8046;SDS011;67150;42.516;23.358;2023-02-11T03:05:29;6.93;;;4.53;;
8046;SDS011;67150;42.516;23.358;2023-02-11T03:08:26;5.07;;;4.50;;
8046;SDS011;67150;42.516;23.358;2023-02-11T03:11:16;5.23;;;4.60;;
8046;SDS011;67150;42.516;23.358;2023-02-11T03:14:04;6.10;;;4.63;;
8046;SDS011;67150;42.516;23.358;2023-02-11T03:16:54;5.17;;;4.50;;
8046;SDS011;67150;42.516;23.358;2023-02-11T03:19:43;5.27;;;4.40;;
8046;SDS011;67150;42.516;23.358;2023-02-11T03:22:32;5.83;;;4.70;;
8046;SDS011;67150;42.516;23.358;2023-02-11T03:25:24;6.03;;;4.87;;
8046;SDS011;67150;42.516;23.358;2023-02-11T03:28:17;5.70;;;4.67;;
8046;SDS011;67150;42.516;23.358;2023-02-11T03:31:10;6.50;;;5.17;;
8046;SDS011;67150;42.516;23.358;2023-02-11T03:34:03;5.20;;;4.70;;
8046;SDS011;67150;42.516;23.358;2023-02-11T03:36:53;7.13;;;5.33;;
8046;SDS011;67150;42.516;23.358;2023-02-11T03:39:45;5.40;;;4.77;;
8046;SDS011;67150;42.516;23.358;2023-02-11T03:42:37;6.30;;;5.30;;
8046;SDS011;67150;42.516;23.358;2023-02-11T03:45:27;6.33;;;5.20;;
8046;SDS011;67150;42.516;23.358;2023-02-11T03:48:15;6.43;;;5.23;;
8046;SDS011;67150;42.516;23.358;2023-02-11T03:51:05;7.43;;;5.50;;
8046;SDS011;67150;42.516;23.358;2023-02-11T03:53:54;6.50;;;5.77;;
8046;SDS011;67150;42.516;23.358;2023-02-11T03:56:47;5.47;;;4.97;;
8046;SDS011;67150;42.516;23.358;2023-02-11T03:59:50;6.37;;;5.33;;
8046;SDS011;67150;42.516;23.358;2023-02-11T04:02:41;7.17;;;6.10;;
8046;SDS011;67150;42.516;23.358;2023-02-11T04:05:27;7.80;;;6.10;;
8046;SDS011;67150;42.516;23.358;2023-02-11T04:08:13;6.37;;;5.73;;
8046;SDS011;67150;42.516;23.358;2023-02-11T04:10:59;6.30;;;5.70;;
8046;SDS011;67150;42.516;23.358;2023-02-11T04:13:45;7.40;;;6.10;;
8046;SDS011;67150;42.516;23.358;2023-02-11T04:16:32;6.90;;;6.03;;
8046;SDS011;67150;42.516;23.358;2023-02-11T04:19:17;6.43;;;5.40;;
8046;SDS011;67150;42.516;23.358;2023-02-11T04:22:03;8.17;;;6.30;;
8046;SDS011;67150;42.516;23.358;2023-02-11T04:24:50;7.23;;;5.80;;
8046;SDS011;67150;42.516;23.358;2023-02-11T04:27:36;6.77;;;5.50;;
8046;SDS011;67150;42.516;23.358;2023-02-11T04:30:22;7.00;;;5.50;;
8046;SDS011;67150;42.516;23.358;2023-02-11T04:33:10;8.73;;;5.83;;
8046;SDS011;67150;42.516;23.358;2023-02-11T04:35:55;7.10;;;6.00;;
8046;SDS011;67150;42.516;23.358;2023-02-11T04:38:41;6.40;;;5.40;;
8046;SDS011;67150;42.516;23.358;2023-02-11T04:41:27;6.77;;;5.23;;
8046;SDS011;67150;42.516;23.358;2023-02-11T04:44:15;8.93;;;5.80;;
8046;SDS011;67150;42.516;23.358;2023-02-11T04:47:01;5.97;;;5.30;;
8046;SDS011;67150;42.516;23.358;2023-02-11T04:49:49;6.10;;;5.50;;
8046;SDS011;67150;42.516;23.358;2023-02-11T04:52:34;7.50;;;5.53;;
8046;SDS011;67150;42.516;23.358;2023-02-11T04:55:20;6.03;;;5.20;;
8046;SDS011;67150;42.516;23.358;2023-02-11T04:58:06;7.57;;;5.80;;
8046;SDS011;67150;42.516;23.358;2023-02-11T05:00:53;6.73;;;5.67;;
8046;SDS011;67150;42.516;23.358;2023-02-11T05:03:39;6.97;;;5.77;;
8046;SDS011;67150;42.516;23.358;2023-02-11T05:06:26;7.07;;;5.87;;
8046;SDS011;67150;42.516;23.358;2023-02-11T05:09:12;9.97;;;6.37;;
8046;SDS011;67150;42.516;23.358;2023-02-11T05:11:59;7.77;;;6.10;;
8046;SDS011;67150;42.516;23.358;2023-02-11T05:14:45;7.73;;;6.13;;
8046;SDS011;67150;42.516;23.358;2023-02-11T05:17:31;7.90;;;6.47;;
8046;SDS011;67150;42.516;23.358;2023-02-11T05:20:16;10.27;;;6.60;;
8046;SDS011;67150;42.516;23.358;2023-02-11T05:23:03;11.10;;;6.13;;
8046;SDS011;67150;42.516;23.358;2023-02-11T05:25:49;11.20;;;6.73;;
8046;SDS011;67150;42.516;23.358;2023-02-11T05:28:35;8.23;;;6.60;;
8046;SDS011;67150;42.516;23.358;2023-02-11T05:31:21;8.03;;;6.17;;
8046;SDS011;67150;42.516;23.358;2023-02-11T05:34:07;10.93;;;6.83;;
8046;SDS011;67150;42.516;23.358;2023-02-11T05:36:53;8.37;;;6.87;;
8046;SDS011;67150;42.516;23.358;2023-02-11T05:39:40;8.30;;;6.23;;
8046;SDS011;67150;42.516;23.358;2023-02-11T05:42:26;9.47;;;6.47;;
8046;SDS011;67150;42.516;23.358;2023-02-11T05:45:12;9.30;;;6.83;;
8046;SDS011;67150;42.516;23.358;2023-02-11T05:47:57;11.43;;;6.60;;
8046;SDS011;67150;42.516;23.358;2023-02-11T05:50:43;11.33;;;6.67;;
8046;SDS011;67150;42.516;23.358;2023-02-11T05:53:29;11.83;;;7.13;;
8046;SDS011;67150;42.516;23.358;2023-02-11T05:56:17;12.50;;;6.37;;
8046;SDS011;67150;42.516;23.358;2023-02-11T05:59:02;12.07;;;6.73;;
8046;SDS011;67150;42.516;23.358;2023-02-11T06:01:48;11.90;;;6.77;;
8046;SDS011;67150;42.516;23.358;2023-02-11T06:04:34;7.80;;;6.13;;
8046;SDS011;67150;42.516;23.358;2023-02-11T06:07:20;11.63;;;6.67;;
8046;SDS011;67150;42.516;23.358;2023-02-11T06:10:06;11.57;;;6.77;;
8046;SDS011;67150;42.516;23.358;2023-02-11T06:12:54;9.37;;;6.83;;
8046;SDS011;67150;42.516;23.358;2023-02-11T06:15:40;8.63;;;6.70;;
8046;SDS011;67150;42.516;23.358;2023-02-11T06:18:26;11.53;;;7.13;;
8046;SDS011;67150;42.516;23.358;2023-02-11T06:21:12;8.87;;;6.73;;
8046;SDS011;67150;42.516;23.358;2023-02-11T06:23:58;9.73;;;6.73;;
8046;SDS011;67150;42.516;23.358;2023-02-11T06:26:44;8.67;;;6.33;;
8046;SDS011;67150;42.516;23.358;2023-02-11T06:29:31;9.20;;;6.30;;
8046;SDS011;67150;42.516;23.358;2023-02-11T06:32:17;8.03;;;6.00;;
8046;SDS011;67150;42.516;23.358;2023-02-11T06:35:03;7.90;;;6.30;;
8046;SDS011;67150;42.516;23.358;2023-02-11T06:37:48;7.80;;;6.00;;
8046;SDS011;67150;42.516;23.358;2023-02-11T06:40:36;8.30;;;6.33;;
8046;SDS011;67150;42.516;23.358;2023-02-11T06:43:22;9.10;;;6.20;;
8046;SDS011;67150;42.516;23.358;2023-02-11T06:46:09;7.97;;;5.90;;
8046;SDS011;67150;42.516;23.358;2023-02-11T06:48:55;7.63;;;6.07;;
8046;SDS011;67150;42.516;23.358;2023-02-11T06:51:41;6.57;;;5.47;;
8046;SDS011;67150;42.516;23.358;2023-02-11T06:54:27;6.70;;;5.80;;
8046;SDS011;67150;42.516;23.358;2023-02-11T06:57:12;6.97;;;5.60;;
8046;SDS011;67150;42.516;23.358;2023-02-11T06:59:58;7.07;;;5.63;;
8046;SDS011;67150;42.516;23.358;2023-02-11T07:02:45;7.27;;;5.47;;
8046;SDS011;67150;42.516;23.358;2023-02-11T07:05:31;7.33;;;5.70;;
8046;SDS011;67150;42.516;23.358;2023-02-11T07:08:18;6.90;;;5.53;;
8046;SDS011;67150;42.516;23.358;2023-02-11T07:11:07;7.50;;;5.40;;
8046;SDS011;67150;42.516;23.358;2023-02-11T07:13:54;6.47;;;5.17;;
8046;SDS011;67150;42.516;23.358;2023-02-11T07:16:41;7.07;;;5.80;;
8046;SDS011;67150;42.516;23.358;2023-02-11T07:19:28;6.80;;;5.43;;
8046;SDS011;67150;42.516;23.358;2023-02-11T07:22:14;6.27;;;5.30;;
8046;SDS011;67150;42.516;23.358;2023-02-11T07:25:01;8.83;;;5.83;;
8046;SDS011;67150;42.516;23.358;2023-02-11T07:27:46;6.87;;;5.87;;
8046;SDS011;67150;42.516;23.358;2023-02-11T07:30:33;8.43;;;5.70;;
8046;SDS011;67150;42.516;23.358;2023-02-11T07:33:19;7.13;;;5.50;;
8046;SDS011;67150;42.516;23.358;2023-02-11T07:36:06;9.67;;;6.10;;
8046;SDS011;67150;42.516;23.358;2023-02-11T07:38:54;10.30;;;5.87;;
8046;SDS011;67150;42.516;23.358;2023-02-11T07:41:39;7.67;;;5.80;;
8046;SDS011;67150;42.516;23.358;2023-02-11T07:44:25;8.10;;;5.87;;
8046;SDS011;67150;42.516;23.358;2023-02-11T07:47:11;9.87;;;7.23;;
8046;SDS011;67150;42.516;23.358;2023-02-11T07:49:57;8.33;;;6.27;;
8046;SDS011;67150;42.516;23.358;2023-02-11T07:52:45;9.70;;;6.13;;
8046;SDS011;67150;42.516;23.358;2023-02-11T07:55:32;7.30;;;5.90;;
8046;SDS011;67150;42.516;23.358;2023-02-11T07:58:17;7.27;;;6.13;;
8046;SDS011;67150;42.516;23.358;2023-02-11T08:01:04;11.33;;;6.60;;
8046;SDS011;67150;42.516;23.358;2023-02-11T08:03:52;6.93;;;5.87;;
8046;SDS011;67150;42.516;23.358;2023-02-11T08:06:39;7.60;;;5.60;;
8046;SDS011;67150;42.516;23.358;2023-02-11T08:09:28;7.43;;;5.80;;
8046;SDS011;67150;42.516;23.358;2023-02-11T08:12:14;6.33;;;5.63;;
8046;SDS011;67150;42.516;23.358;2023-02-11T08:14:59;7.03;;;5.90;;
8046;SDS011;67150;42.516;23.358;2023-02-11T08:17:45;7.13;;;5.40;;
8046;SDS011;67150;42.516;23.358;2023-02-11T08:20:30;7.17;;;5.70;;
8046;SDS011;67150;42.516;23.358;2023-02-11T08:23:16;6.13;;;5.30;;
8046;SDS011;67150;42.516;23.358;2023-02-11T08:26:04;5.70;;;4.90;;
8046;SDS011;67150;42.516;23.358;2023-02-11T08:28:52;6.70;;;5.47;;
8046;SDS011;67150;42.516;23.358;2023-02-11T08:31:39;6.13;;;5.03;;
8046;SDS011;67150;42.516;23.358;2023-02-11T08:34:26;6.03;;;5.07;;
8046;SDS011;67150;42.516;23.358;2023-02-11T08:37:12;5.73;;;4.77;;
8046;SDS011;67150;42.516;23.358;2023-02-11T08:39:58;7.33;;;5.50;;
8046;SDS011;67150;42.516;23.358;2023-02-11T08:42:45;7.00;;;5.53;;
8046;SDS011;67150;42.516;23.358;2023-02-11T08:45:31;8.80;;;5.67;;
8046;SDS011;67150;42.516;23.358;2023-02-11T08:48:16;7.73;;;5.97;;
8046;SDS011;67150;42.516;23.358;2023-02-11T08:51:04;9.40;;;6.20;;
8046;SDS011;67150;42.516;23.358;2023-02-11T08:53:51;9.47;;;6.33;;
8046;SDS011;67150;42.516;23.358;2023-02-11T08:56:37;9.80;;;7.00;;
8046;SDS011;67150;42.516;23.358;2023-02-11T08:59:24;11.60;;;7.13;;
8046;SDS011;67150;42.516;23.358;2023-02-11T09:02:11;11.03;;;7.27;;
8046;SDS011;67150;42.516;23.358;2023-02-11T09:04:58;11.67;;;7.87;;
8046;SDS011;67150;42.516;23.358;2023-02-11T09:07:44;10.70;;;7.70;;
8046;SDS011;67150;42.516;23.358;2023-02-11T09:10:30;12.33;;;8.37;;
8046;SDS011;67150;42.516;23.358;2023-02-11T09:13:15;16.60;;;8.97;;
8046;SDS011;67150;42.516;23.358;2023-02-11T09:16:03;11.33;;;7.87;;
8046;SDS011;67150;42.516;23.358;2023-02-11T09:18:50;14.27;;;9.23;;
8046;SDS011;67150;42.516;23.358;2023-02-11T09:21:36;18.87;;;9.77;;
8046;SDS011;67150;42.516;23.358;2023-02-11T09:24:22;15.03;;;10.53;;
8046;SDS011;67150;42.516;23.358;2023-02-11T09:27:11;15.27;;;9.47;;
8046;SDS011;67150;42.516;23.358;2023-02-11T09:29:56;17.80;;;10.07;;
8046;SDS011;67150;42.516;23.358;2023-02-11T09:32:43;17.57;;;11.23;;
8046;SDS011;67150;42.516;23.358;2023-02-11T09:35:29;17.43;;;11.20;;
8046;SDS011;67150;42.516;23.358;2023-02-11T09:38:17;15.20;;;11.10;;
8046;SDS011;67150;42.516;23.358;2023-02-11T09:41:02;16.90;;;10.63;;
8046;SDS011;67150;42.516;23.358;2023-02-11T09:43:51;19.47;;;11.90;;
8046;SDS011;67150;42.516;23.358;2023-02-11T09:46:40;20.57;;;12.23;;
8046;SDS011;67150;42.516;23.358;2023-02-11T09:49:32;23.37;;;12.37;;
8046;SDS011;67150;42.516;23.358;2023-02-11T09:52:26;19.43;;;12.30;;
8046;SDS011;67150;42.516;23.358;2023-02-11T09:55:18;19.33;;;12.70;;
8046;SDS011;67150;42.516;23.358;2023-02-11T09:58:10;24.07;;;13.33;;
8046;SDS011;67150;42.516;23.358;2023-02-11T10:00:59;17.60;;;12.40;;
8046;SDS011;67150;42.516;23.358;2023-02-11T10:03:54;19.13;;;11.73;;
8046;SDS011;67150;42.516;23.358;2023-02-11T10:06:50;20.87;;;12.83;;
8046;SDS011;67150;42.516;23.358;2023-02-11T10:09:47;21.43;;;12.87;;
8046;SDS011;67150;42.516;23.358;2023-02-11T10:12:53;17.53;;;12.30;;
8046;SDS011;67150;42.516;23.358;2023-02-11T10:15:48;24.13;;;12.73;;
8046;SDS011;67150;42.516;23.358;2023-02-11T10:18:44;22.87;;;13.63;;
8046;SDS011;67150;42.516;23.358;2023-02-11T10:21:38;27.20;;;15.33;;
8046;SDS011;67150;42.516;23.358;2023-02-11T10:24:37;21.30;;;12.83;;
8046;SDS011;67150;42.516;23.358;2023-02-11T10:27:27;20.00;;;13.30;;
8046;SDS011;67150;42.516;23.358;2023-02-11T10:30:19;19.23;;;13.27;;
8046;SDS011;67150;42.516;23.358;2023-02-11T10:33:11;20.57;;;13.70;;
8046;SDS011;67150;42.516;23.358;2023-02-11T10:36:04;20.97;;;13.83;;
8046;SDS011;67150;42.516;23.358;2023-02-11T10:38:50;20.43;;;14.27;;
8046;SDS011;67150;42.516;23.358;2023-02-11T10:41:40;22.77;;;13.30;;
8046;SDS011;67150;42.516;23.358;2023-02-11T10:44:29;26.57;;;13.20;;
8046;SDS011;67150;42.516;23.358;2023-02-11T10:47:19;24.40;;;13.70;;
8046;SDS011;67150;42.516;23.358;2023-02-11T10:50:16;24.93;;;13.50;;
8046;SDS011;67150;42.516;23.358;2023-02-11T10:53:11;21.93;;;13.13;;
8046;SDS011;67150;42.516;23.358;2023-02-11T10:56:03;25.10;;;13.00;;
8046;SDS011;67150;42.516;23.358;2023-02-11T10:58:55;20.93;;;12.93;;
8046;SDS011;67150;42.516;23.358;2023-02-11T11:01:44;25.67;;;12.97;;
8046;SDS011;67150;42.516;23.358;2023-02-11T11:04:33;20.63;;;12.47;;
8046;SDS011;67150;42.516;23.358;2023-02-11T11:07:24;22.00;;;12.20;;
8046;SDS011;67150;42.516;23.358;2023-02-11T11:10:24;21.20;;;13.00;;
8046;SDS011;67150;42.516;23.358;2023-02-11T11:13:23;27.80;;;12.33;;
8046;SDS011;67150;42.516;23.358;2023-02-11T11:16:19;23.63;;;11.97;;
8046;SDS011;67150;42.516;23.358;2023-02-11T11:19:13;20.83;;;12.47;;
8046;SDS011;67150;42.516;23.358;2023-02-11T11:22:04;25.50;;;12.40;;
8046;SDS011;67150;42.516;23.358;2023-02-11T11:24:50;23.07;;;12.37;;
8046;SDS011;67150;42.516;23.358;2023-02-11T11:27:38;32.47;;;12.27;;
8046;SDS011;67150;42.516;23.358;2023-02-11T11:30:24;24.00;;;12.63;;
8046;SDS011;67150;42.516;23.358;2023-02-11T11:33:19;23.80;;;12.70;;
8046;SDS011;67150;42.516;23.358;2023-02-11T11:36:07;24.30;;;12.53;;
8046;SDS011;67150;42.516;23.358;2023-02-11T11:38:56;23.63;;;13.17;;
8046;SDS011;67150;42.516;23.358;2023-02-11T11:41:48;25.73;;;12.23;;
8046;SDS011;67150;42.516;23.358;2023-02-11T11:44:36;24.13;;;12.60;;
8046;SDS011;67150;42.516;23.358;2023-02-11T11:47:34;27.03;;;12.17;;
8046;SDS011;67150;42.516;23.358;2023-02-11T11:50:26;20.47;;;12.27;;
8046;SDS011;67150;42.516;23.358;2023-02-11T11:53:19;21.83;;;12.73;;
8046;SDS011;67150;42.516;23.358;2023-02-11T11:56:10;19.80;;;12.67;;
8046;SDS011;67150;42.516;23.358;2023-02-11T11:59:01;21.93;;;12.77;;
8046;SDS011;67150;42.516;23.358;2023-02-11T12:02:00;21.30;;;12.33;;
8046;SDS011;67150;42.516;23.358;2023-02-11T12:05:02;21.87;;;13.17;;
8046;SDS011;67150;42.516;23.358;2023-02-11T12:07:59;17.97;;;13.20;;
8046;SDS011;67150;42.516;23.358;2023-02-11T12:10:56;24.37;;;13.60;;
8046;SDS011;67150;42.516;23.358;2023-02-11T12:13:56;18.20;;;12.50;;
8046;SDS011;67150;42.516;23.358;2023-02-11T12:16:52;24.07;;;12.63;;
8046;SDS011;67150;42.516;23.358;2023-02-11T12:19:52;20.80;;;13.10;;
8046;SDS011;67150;42.516;23.358;2023-02-11T12:22:48;20.10;;;12.80;;
8046;SDS011;67150;42.516;23.358;2023-02-11T12:25:52;21.30;;;13.10;;
8046;SDS011;67150;42.516;23.358;2023-02-11T12:28:51;19.57;;;12.50;;
8046;SDS011;67150;42.516;23.358;2023-02-11T12:31:50;18.90;;;12.73;;
8046;SDS011;67150;42.516;23.358;2023-02-11T12:38:28;19.87;;;12.20;;
8046;SDS011;67150;42.516;23.358;2023-02-11T12:41:33;21.00;;;12.00;;
8046;SDS011;67150;42.516;23.358;2023-02-11T12:44:58;17.90;;;12.10;;
8046;SDS011;67150;42.516;23.358;2023-02-11T12:48:04;18.20;;;11.83;;
8046;SDS011;67150;42.516;23.358;2023-02-11T12:51:00;20.80;;;12.17;;
8046;SDS011;67150;42.516;23.358;2023-02-11T12:53:59;20.70;;;12.03;;
8046;SDS011;67150;42.516;23.358;2023-02-11T12:57:02;20.07;;;12.43;;
8046;SDS011;67150;42.516;23.358;2023-02-11T12:59:57;18.07;;;12.13;;
8046;SDS011;67150;42.516;23.358;2023-02-11T13:02:51;18.70;;;12.37;;
8046;SDS011;67150;42.516;23.358;2023-02-11T13:05:42;19.10;;;12.00;;
8046;SDS011;67150;42.516;23.358;2023-02-11T13:08:32;18.27;;;12.87;;
8046;SDS011;67150;42.516;23.358;2023-02-11T13:11:22;18.93;;;12.27;;
8046;SDS011;67150;42.516;23.358;2023-02-11T13:14:13;17.13;;;11.50;;
8046;SDS011;67150;42.516;23.358;2023-02-11T13:17:12;19.30;;;11.80;;
8046;SDS011;67150;42.516;23.358;2023-02-11T13:20:11;18.60;;;11.93;;
8046;SDS011;67150;42.516;23.358;2023-02-11T13:23:09;16.50;;;12.10;;
8046;SDS011;67150;42.516;23.358;2023-02-11T13:26:02;17.13;;;11.57;;
8046;SDS011;67150;42.516;23.358;2023-02-11T13:28:55;18.27;;;11.93;;
8046;SDS011;67150;42.516;23.358;2023-02-11T13:31:55;23.43;;;11.80;;
8046;SDS011;67150;42.516;23.358;2023-02-11T13:34:54;19.10;;;11.80;;
8046;SDS011;67150;42.516;23.358;2023-02-11T13:37:41;22.87;;;12.17;;
8046;SDS011;67150;42.516;23.358;2023-02-11T13:40:32;24.23;;;11.97;;
8046;SDS011;67150;42.516;23.358;2023-02-11T13:43:20;19.53;;;12.03;;
8046;SDS011;67150;42.516;23.358;2023-02-11T13:46:07;23.57;;;12.47;;
8046;SDS011;67150;42.516;23.358;2023-02-11T13:48:59;19.67;;;12.27;;
8046;SDS011;67150;42.516;23.358;2023-02-11T13:51:45;18.17;;;12.37;;
8046;SDS011;67150;42.516;23.358;2023-02-11T13:54:33;24.63;;;12.40;;
8046;SDS011;67150;42.516;23.358;2023-02-11T13:57:35;23.23;;;12.40;;
8046;SDS011;67150;42.516;23.358;2023-02-11T14:03:31;20.40;;;11.90;;
8046;SDS011;67150;42.516;23.358;2023-02-11T14:06:37;20.60;;;11.97;;
8046;SDS011;67150;42.516;23.358;2023-02-11T14:10:00;18.83;;;11.83;;
8046;SDS011;67150;42.516;23.358;2023-02-11T14:16:05;22.73;;;11.70;;
8046;SDS011;67150;42.516;23.358;2023-02-11T14:18:59;24.27;;;11.47;;
8046;SDS011;67150;42.516;23.358;2023-02-11T14:21:47;18.47;;;11.60;;
8046;SDS011;67150;42.516;23.358;2023-02-11T14:24:47;14.90;;;10.87;;
8046;SDS011;67150;42.516;23.358;2023-02-11T14:27:38;20.97;;;11.37;;
8046;SDS011;67150;42.516;23.358;2023-02-11T14:34:01;14.87;;;11.13;;
8046;SDS011;67150;42.516;23.358;2023-02-11T14:36:56;17.70;;;11.10;;
8046;SDS011;67150;42.516;23.358;2023-02-11T14:39:53;19.80;;;11.17;;
8046;SDS011;67150;42.516;23.358;2023-02-11T14:42:44;23.87;;;12.10;;
8046;SDS011;67150;42.516;23.358;2023-02-11T14:45:33;23.33;;;11.70;;
8046;SDS011;67150;42.516;23.358;2023-02-11T14:48:21;23.50;;;11.77;;
8046;SDS011;67150;42.516;23.358;2023-02-11T14:51:14;19.70;;;12.67;;
8046;SDS011;67150;42.516;23.358;2023-02-11T14:54:08;20.37;;;12.83;;
8046;SDS011;67150;42.516;23.358;2023-02-11T14:57:07;18.43;;;11.10;;
8046;SDS011;67150;42.516;23.358;2023-02-11T14:59:57;25.53;;;12.90;;
8046;SDS011;67150;42.516;23.358;2023-02-11T15:02:45;21.40;;;11.77;;
8046;SDS011;67150;42.516;23.358;2023-02-11T15:05:31;23.83;;;11.63;;
8046;SDS011;67150;42.516;23.358;2023-02-11T15:08:17;19.10;;;12.07;;
8046;SDS011;67150;42.516;23.358;2023-02-11T15:11:06;18.10;;;12.03;;
8046;SDS011;67150;42.516;23.358;2023-02-11T15:13:54;19.93;;;11.70;;
8046;SDS011;67150;42.516;23.358;2023-02-11T15:16:43;18.33;;;12.33;;
8046;SDS011;67150;42.516;23.358;2023-02-11T15:19:31;20.87;;;11.83;;
8046;SDS011;67150;42.516;23.358;2023-02-11T15:22:21;19.50;;;12.70;;
8046;SDS011;67150;42.516;23.358;2023-02-11T15:25:09;25.10;;;12.60;;
8046;SDS011;67150;42.516;23.358;2023-02-11T15:28:09;22.23;;;12.83;;
8046;SDS011;67150;42.516;23.358;2023-02-11T15:31:12;27.93;;;12.37;;
8046;SDS011;67150;42.516;23.358;2023-02-11T15:34:05;24.47;;;12.00;;
8046;SDS011;67150;42.516;23.358;2023-02-11T15:36:52;25.63;;;11.93;;
8046;SDS011;67150;42.516;23.358;2023-02-11T15:39:38;23.77;;;12.03;;
8046;SDS011;67150;42.516;23.358;2023-02-11T15:42:25;28.67;;;12.93;;
8046;SDS011;67150;42.516;23.358;2023-02-11T15:45:22;24.80;;;11.70;;
8046;SDS011;67150;42.516;23.358;2023-02-11T15:48:12;28.43;;;12.27;;
8046;SDS011;67150;42.516;23.358;2023-02-11T15:51:01;21.30;;;11.97;;
8046;SDS011;67150;42.516;23.358;2023-02-11T15:53:49;22.17;;;11.73;;
8046;SDS011;67150;42.516;23.358;2023-02-11T15:56:42;27.70;;;11.90;;
8046;SDS011;67150;42.516;23.358;2023-02-11T15:59:30;23.47;;;12.03;;
8046;SDS011;67150;42.516;23.358;2023-02-11T16:02:20;21.50;;;10.97;;
8046;SDS011;67150;42.516;23.358;2023-02-11T16:05:23;23.90;;;12.20;;
8046;SDS011;67150;42.516;23.358;2023-02-11T16:08:19;21.30;;;11.63;;
8046;SDS011;67150;42.516;23.358;2023-02-11T16:11:17;25.47;;;11.40;;
8046;SDS011;67150;42.516;23.358;2023-02-11T16:14:19;24.70;;;11.90;;
8046;SDS011;67150;42.516;23.358;2023-02-11T16:17:07;24.70;;;12.37;;
8046;SDS011;67150;42.516;23.358;2023-02-11T16:19:56;20.10;;;11.23;;
8046;SDS011;67150;42.516;23.358;2023-02-11T16:22:43;20.97;;;11.83;;
8046;SDS011;67150;42.516;23.358;2023-02-11T16:25:30;16.90;;;10.80;;
8046;SDS011;67150;42.516;23.358;2023-02-11T16:28:18;14.73;;;10.53;;
8046;SDS011;67150;42.516;23.358;2023-02-11T16:31:04;18.80;;;10.87;;
8046;SDS011;67150;42.516;23.358;2023-02-11T16:33:50;24.10;;;10.93;;
8046;SDS011;67150;42.516;23.358;2023-02-11T16:36:37;20.57;;;11.00;;
8046;SDS011;67150;42.516;23.358;2023-02-11T16:39:23;24.77;;;11.60;;
8046;SDS011;67150;42.516;23.358;2023-02-11T16:42:09;27.37;;;11.30;;
8046;SDS011;67150;42.516;23.358;2023-02-11T16:44:55;20.23;;;10.60;;
8046;SDS011;67150;42.516;23.358;2023-02-11T16:47:42;17.03;;;9.87;;
8046;SDS011;67150;42.516;23.358;2023-02-11T16:50:28;18.87;;;10.33;;
8046;SDS011;67150;42.516;23.358;2023-02-11T16:53:18;18.87;;;10.07;;
8046;SDS011;67150;42.516;23.358;2023-02-11T16:56:09;18.63;;;9.63;;
8046;SDS011;67150;42.516;23.358;2023-02-11T16:58:59;15.77;;;9.53;;
8046;SDS011;67150;42.516;23.358;2023-02-11T17:01:45;16.57;;;9.73;;
8046;SDS011;67150;42.516;23.358;2023-02-11T17:04:32;15.53;;;9.07;;
8046;SDS011;67150;42.516;23.358;2023-02-11T17:07:18;14.33;;;9.33;;
8046;SDS011;67150;42.516;23.358;2023-02-11T17:10:11;15.90;;;9.60;;